Time;durP1;ratioP1;P1;durP2;ratioP2;P2;SDS_P1;SDS_P2;PMS_P1;PMS_P2;Temp;Humidity;BMP_temperature;BMP_pressure;BME280_temperature;BME280_humidity;BME280_pressure;Samples;Min_cycle;Max_cycle;Signal;HPM_P1;HPM_P2
2022/07/28 00:01:06;;;;;;;;;1.75;1.75;;;;;21.84;35.61;100864.63;5015286;28;45796;-80
2022/07/28 00:03:31;;;;;;;;;3.00;2.00;;;;;21.89;35.33;100880.94;5015796;28;45497;-81
2022/07/28 00:05:57;;;;;;;;;2.00;2.00;;;;;21.87;35.93;100871.44;5015563;28;45458;-79
2022/07/28 00:08:22;;;;;;;;;1.00;1.00;;;;;21.83;35.89;100859.44;5015546;28;45543;-80
2022/07/28 00:10:48;;;;;;;;;2.00;2.00;;;;;21.79;35.78;100858.97;5015585;28;45651;-80
2022/07/28 00:13:13;;;;;;;;;2.00;2.00;;;;;21.77;35.72;100856.47;5014390;28;45799;-81
2022/07/28 00:15:40;;;;;;;;;1.75;1.75;;;;;21.73;35.88;100846.34;5015191;28;45614;-79
2022/07/28 00:18:05;;;;;;;;;2.00;2.00;;;;;21.75;35.71;100855.81;5015155;28;45994;-79
2022/07/28 00:20:30;;;;;;;;;2.00;2.00;;;;;21.78;36.06;100857.31;5015328;28;45628;-80
2022/07/28 00:22:56;;;;;;;;;2.00;2.00;;;;;21.73;35.72;100847.19;5015364;28;45701;-81
2022/07/28 00:25:24;;;;;;;;;1.50;1.00;;;;;21.79;35.64;100856.31;5015320;28;45564;-79
2022/07/28 00:27:50;;;;;;;;;2.00;2.00;;;;;21.75;35.64;100845.16;5015242;28;45922;-81
2022/07/28 00:30:15;;;;;;;;;2.00;2.00;;;;;21.72;35.90;100836.66;5013370;28;45552;-76
2022/07/28 00:32:41;;;;;;;;;3.00;2.00;;;;;21.73;35.82;100844.50;5015546;28;45453;-78
2022/07/28 00:35:07;;;;;;;;;1.00;1.00;;;;;21.71;35.97;100841.16;5015032;28;45693;-80
2022/07/28 00:37:32;;;;;;;;;2.75;1.75;;;;;21.68;36.12;100827.38;5015037;28;45683;-79
2022/07/28 00:39:57;;;;;;;;;1.50;1.00;;;;;21.69;36.34;100831.69;5015130;28;45593;-80
2022/07/28 00:42:23;;;;;;;;;1.50;1.50;;;;;21.59;36.26;100817.75;5013908;28;45849;-79
2022/07/28 00:44:48;;;;;;;;;1.75;1.75;;;;;21.62;36.12;100820.91;5015033;28;45531;-78
2022/07/28 00:47:14;;;;;;;;;1.50;1.50;;;;;21.59;36.28;100812.44;5014967;28;46170;-80
2022/07/28 00:49:39;;;;;;;;;1.00;1.00;;;;;21.60;36.13;100825.56;5014957;28;45973;-80
2022/07/28 00:52:07;;;;;;;;;2.00;2.00;;;;;21.59;36.67;100829.22;5014543;28;45780;-80
2022/07/28 00:54:33;;;;;;;;;1.75;1.75;;;;;21.48;36.21;100813.66;5014614;28;46752;-80
2022/07/28 00:57:10;;;;;;;;;4.00;2.00;;;;;21.55;36.40;100827.09;5015359;28;46469;-81
2022/07/28 01:02:57;;;;;;;;;2.50;2.50;;;;;21.48;36.31;100813.66;5015002;28;45641;-79
2022/07/28 01:05:24;;;;;;;;;0.75;0.75;;;;;21.49;36.51;100811.78;5012953;28;48512;-79
2022/07/28 01:08:09;;;;;;;;;0.75;0.75;;;;;21.48;36.63;100816.31;5014781;28;46805;-80
2022/07/28 01:10:52;;;;;;;;;1.00;1.00;;;;;21.47;36.59;100809.31;5014718;28;45683;-80
2022/07/28 01:13:58;;;;;;;;;1.00;1.00;;;;;21.47;36.60;100800.50;5014452;28;45674;-80
2022/07/28 01:16:26;;;;;;;;;1.25;1.25;;;;;21.38;36.47;100786.34;4991415;28;45778;-80
2022/07/28 01:19:03;;;;;;;;;1.75;1.75;;;;;21.39;36.56;100788.00;5014244;28;45777;-79
2022/07/28 01:21:33;;;;;;;;;1.00;1.00;;;;;21.47;36.63;100801.31;5014639;28;45594;-80
2022/07/28 01:24:08;;;;;;;;;1.25;1.25;;;;;21.47;36.54;100803.16;5014500;28;45662;-80
2022/07/28 01:26:52;;;;;;;;;1.00;1.00;;;;;21.46;36.71;100807.66;5014230;28;45738;-80
2022/07/28 01:29:42;;;;;;;;;1.50;1.00;;;;;21.46;36.96;100809.47;5014420;28;45843;-80
2022/07/28 01:32:32;;;;;;;;;0.75;0.75;;;;;21.44;36.73;100804.31;5014365;28;45764;-78
2022/07/28 01:35:22;;;;;;;;;1.50;1.50;;;;;21.44;36.79;100804.31;5014548;28;45790;-79
2022/07/28 01:37:53;;;;;;;;;1.00;1.00;;;;;21.43;36.70;100802.66;5012759;28;46573;-80
2022/07/28 01:40:21;;;;;;;;;1.25;1.25;;;;;21.40;36.53;100807.50;5012643;28;47535;-80
2022/07/28 01:46:10;;;;;;;;;1.50;1.50;;;;;21.37;37.25;100789.22;5014081;28;45714;-80
2022/07/28 01:48:38;;;;;;;;;0.75;0.75;;;;;21.37;36.68;100795.38;5014102;28;45938;-80
2022/07/28 01:51:06;;;;;;;;;2.00;2.00;;;;;21.36;36.89;100793.72;5014094;28;46209;-78
2022/07/28 01:53:35;;;;;;;;;0.75;0.75;;;;;21.35;37.06;100792.03;5014222;28;45740;-81
2022/07/28 01:56:03;;;;;;;;;2.75;1.75;;;;;21.34;37.02;100796.53;5012522;28;46075;-80
2022/07/28 02:05:25;;;;;;;;;1.50;1.00;;;;;21.32;37.18;100787.88;5010892;28;45774;-81
2022/07/28 02:11:38;;;;;;;;;0.75;0.75;;;;;21.29;37.54;100785.56;4952623;28;45812;-81
2022/07/28 02:14:09;;;;;;;;;1.25;1.25;;;;;21.28;37.12;100775.91;4952464;28;46344;-79
2022/07/28 02:16:36;;;;;;;;;1.00;1.00;;;;;21.26;37.62;100771.78;4966428;28;45809;-80
2022/07/28 02:19:03;;;;;;;;;2.00;1.50;;;;;21.17;37.47;100759.47;4972521;28;45641;-80
2022/07/28 02:21:31;;;;;;;;;2.00;2.00;;;;;21.20;37.57;100759.97;4972365;28;45674;-78
2022/07/28 02:23:58;;;;;;;;;1.50;1.50;;;;;21.19;37.52;100760.97;4971789;28;46327;-81
2022/07/28 02:26:30;;;;;;;;;2.00;2.00;;;;;21.15;37.57;100754.34;4971998;28;45807;-79
2022/07/28 02:28:58;;;;;;;;;2.00;1.25;;;;;21.13;37.49;100750.97;4972069;28;45611;-80
2022/07/28 02:31:53;;;;;;;;;2.75;1.00;;;;;21.15;37.62;100757.00;4972014;28;46538;-80
2022/07/28 02:34:21;;;;;;;;;2.00;2.00;;;;;21.16;37.67;100755.16;4972157;28;46285;-82
2022/07/28 02:36:55;;;;;;;;;1.00;1.00;;;;;21.06;37.61;100742.00;4971805;28;45932;-81
2022/07/28 02:39:29;;;;;;;;;1.50;0.50;;;;;21.14;37.70;100760.66;4972318;28;45731;-81
2022/07/28 02:42:03;;;;;;;;;2.00;1.75;;;;;21.14;37.82;100757.13;4987396;28;46581;-82
2022/07/28 02:44:35;;;;;;;;;1.00;1.00;;;;;21.12;37.49;100756.47;5016344;28;45741;-81
2022/07/28 02:47:06;;;;;;;;;1.00;1.00;;;;;21.01;37.71;100736.38;5017932;28;45642;-80
2022/07/28 02:49:34;;;;;;;;;2.00;2.00;;;;;21.06;37.80;100747.34;5020225;28;45635;-80
2022/07/28 02:52:02;;;;;;;;;1.25;1.25;;;;;21.04;37.91;100743.19;5020480;28;46739;-81
2022/07/28 02:54:29;;;;;;;;;2.00;2.00;;;;;21.04;38.08;100746.69;5020643;28;45876;-80
2022/07/28 02:56:57;;;;;;;;;2.25;1.00;;;;;21.00;37.89;100741.88;5020813;28;45486;-81
2022/07/28 02:59:24;;;;;;;;;1.25;0.50;;;;;21.00;38.12;100741.88;5020886;28;45471;-78
2022/07/28 03:01:51;;;;;;;;;1.50;1.50;;;;;21.02;37.90;100751.34;5020902;28;46795;-79
2022/07/28 03:07:07;;;;;;;;;1.25;1.25;;;;;21.02;38.12;100748.69;4998408;28;45770;-79
2022/07/28 03:09:44;;;;;;;;;1.50;1.50;;;;;21.01;37.92;100743.53;4998837;28;45505;-79
2022/07/28 03:12:10;;;;;;;;;0.75;0.75;;;;;20.93;38.23;100744.41;4999029;28;46751;-81
2022/07/28 03:14:36;;;;;;;;;1.25;0.50;;;;;20.98;38.21;100750.03;4998838;28;46484;-81
2022/07/28 03:17:02;;;;;;;;;2.25;1.50;;;;;20.91;38.42;100743.75;5001096;28;46689;-81
2022/07/28 03:19:27;;;;;;;;;1.25;1.25;;;;;20.90;38.02;100747.41;5002293;28;45547;-79
2022/07/28 03:21:53;;;;;;;;;1.50;1.00;;;;;20.80;37.92;100731.63;5002245;28;45621;-79
2022/07/28 03:24:27;;;;;;;;;0.50;0.50;;;;;20.81;38.10;100743.13;5002136;28;45854;-80
2022/07/28 03:27:01;;;;;;;;;2.00;2.00;;;;;20.87;38.34;100753.91;5001837;28;45719;-81
2022/07/28 03:29:30;;;;;;;;;2.00;2.00;;;;;20.78;38.56;100736.28;5002040;28;45781;-78
2022/07/28 03:31:58;;;;;;;;;3.00;2.00;;;;;20.83;38.44;100741.13;4984318;28;46569;-80
2022/07/28 03:34:24;;;;;;;;;0.75;0.75;;;;;20.71;38.52;100732.66;5001076;28;45587;-81
2022/07/28 03:41:11;;;;;;;;;2.00;2.00;;;;;20.75;38.69;100738.47;4998651;28;45740;-79
2022/07/28 03:46:13;;;;;;;;;2.00;2.00;;;;;20.51;38.77;100712.78;5753776;22;45762;-81
2022/07/28 03:48:39;;;;;;;;;2.25;2.25;;;;;20.65;39.00;100740.50;5006528;28;45707;-79
2022/07/28 03:51:04;;;;;;;;;3.00;3.00;;;;;20.60;38.77;100737.53;5019708;28;45738;-81
2022/07/28 03:53:30;;;;;;;;;1.00;1.00;;;;;20.59;38.86;100731.38;5000432;28;47344;-81
2022/07/28 03:55:56;;;;;;;;;2.50;2.50;;;;;20.55;38.96;100732.72;4998789;28;48235;-80
2022/07/28 03:58:23;;;;;;;;;3.50;2.00;;;;;20.61;39.01;100740.03;5018968;28;45824;-81
2022/07/28 04:00:49;;;;;;;;;2.00;2.00;;;;;20.59;39.35;100739.34;5020344;28;46015;-80
2022/07/28 04:03:16;;;;;;;;;2.00;2.00;;;;;20.60;39.24;100751.66;5019588;28;46168;-80
2022/07/28 04:08:41;;;;;;;;;2.75;2.00;;;;;20.45;39.45;100729.41;5013212;28;45526;-79
2022/07/28 04:15:33;;;;;;;;;4.50;3.00;;;;;20.50;39.72;100751.03;4913081;28;46734;-82
2022/07/28 04:17:59;;;;;;;;;2.25;2.25;;;;;20.47;39.74;100746.84;4924126;28;46058;-80
2022/07/28 04:20:26;;;;;;;;;3.25;3.00;;;;;20.48;39.47;100747.69;4917338;28;45841;-81
2022/07/28 04:22:53;;;;;;;;;2.50;1.50;;;;;20.47;39.78;100743.38;4907253;28;45947;-81
2022/07/28 04:25:24;;;;;;;;;2.50;2.50;;;;;20.45;39.65;100742.72;4921690;28;46012;-81
2022/07/28 04:27:51;;;;;;;;;1.50;1.50;;;;;20.47;39.72;100740.69;4917908;28;46265;-81
2022/07/28 04:30:19;;;;;;;;;1.50;1.25;;;;;20.42;39.71;100735.91;4913016;28;45889;-81
2022/07/28 04:32:46;;;;;;;;;2.00;2.00;;;;;20.40;39.72;100735.25;4912534;28;47262;-80
2022/07/28 04:35:13;;;;;;;;;3.00;3.00;;;;;20.37;39.86;100732.06;4901313;28;47080;-81
2022/07/28 04:37:39;;;;;;;;;2.25;2.00;;;;;20.34;39.89;100729.78;4919693;28;46094;-82
2022/07/28 04:40:06;;;;;;;;;2.25;1.50;;;;;20.38;40.09;100733.75;4918502;28;46750;-81
2022/07/28 04:42:32;;;;;;;;;2.50;2.50;;;;;20.33;39.68;100728.09;4916933;28;46000;-81
2022/07/28 04:48:34;;;;;;;;;3.50;2.75;;;;;20.27;40.29;100720.75;4935200;28;46080;-82
2022/07/28 04:50:59;;;;;;;;;3.25;3.25;;;;;20.26;39.93;100719.91;4969783;28;45718;-82
2022/07/28 04:53:27;;;;;;;;;2.25;2.00;;;;;20.31;40.03;100730.06;4974684;28;45767;-82
2022/07/28 04:55:54;;;;;;;;;2.75;2.75;;;;;20.23;40.22;100728.25;4985468;28;46621;-81
2022/07/28 04:58:19;;;;;;;;;1.75;1.50;;;;;20.21;40.23;100722.25;4962765;28;47963;-81
2022/07/28 05:00:45;;;;;;;;;4.00;3.00;;;;;20.14;40.31;100710.63;4984848;28;45850;-78
2022/07/28 05:03:11;;;;;;;;;3.50;3.25;;;;;20.28;40.56;100735.72;4974758;28;45783;-81
2022/07/28 05:06:12;;;;;;;;;;;;;;;;;;;;;
2022/07/28 05:08:38;;;;;;;;;4.50;3.00;;;;;20.25;40.37;100741.38;5140896;23;74268;-80
2022/07/28 05:11:09;;;;;;;;;4.00;3.00;;;;;20.22;40.60;100726.59;4996161;28;46133;-80
2022/07/28 05:13:35;;;;;;;;;3.00;3.00;;;;;20.16;40.59;100721.09;5010347;28;45722;-81
2022/07/28 05:16:07;;;;;;;;;4.00;3.50;;;;;20.09;40.34;100716.44;5012278;28;47304;-79
2022/07/28 05:18:48;;;;;;;;;3.00;3.00;;;;;20.17;40.89;100730.75;4994491;28;46373;-81
2022/07/28 05:21:13;;;;;;;;;4.25;3.00;;;;;20.17;40.49;100730.75;5013219;28;45918;-80
2022/07/28 05:24:23;;;;;;;;;3.25;3.25;;;;;20.09;40.76;100719.09;5011982;28;45699;-79
2022/07/28 05:26:48;;;;;;;;;3.25;2.75;;;;;20.05;40.74;100723.09;4910347;28;45946;-81
2022/07/28 05:29:19;;;;;;;;;3.00;3.00;;;;;20.09;41.01;100723.59;4927679;28;45686;-81
2022/07/28 05:31:45;;;;;;;;;2.75;2.75;;;;;20.15;40.81;100733.56;4921540;28;46415;-81
2022/07/28 05:34:10;;;;;;;;;2.00;2.00;;;;;20.18;40.94;100732.41;4920933;28;46338;-81
2022/07/28 05:36:35;;;;;;;;;1.50;1.50;;;;;20.14;40.68;100731.91;4917513;28;48584;-82
2022/07/28 05:39:02;;;;;;;;;2.25;2.00;;;;;20.18;40.70;100738.56;4932705;28;46163;-82
2022/07/28 05:41:27;;;;;;;;;2.00;2.00;;;;;20.18;40.89;100735.91;4918195;28;46098;-80
2022/07/28 05:43:53;;;;;;;;;3.00;3.00;;;;;20.10;40.83;100726.09;4911510;28;45971;-82
2022/07/28 05:46:18;;;;;;;;;3.00;2.25;;;;;20.13;40.65;100728.41;4913401;28;45733;-81
2022/07/28 05:48:45;;;;;;;;;3.00;3.00;;;;;20.09;40.97;100724.44;4925243;28;46970;-81
2022/07/28 05:51:10;;;;;;;;;3.00;3.00;;;;;20.18;40.83;100730.59;4924579;28;45802;-81
2022/07/28 05:53:36;;;;;;;;;5.75;3.25;;;;;20.18;41.02;100735.91;4923238;28;45736;-82
2022/07/28 05:56:02;;;;;;;;;2.25;2.00;;;;;20.20;41.15;100733.91;4923275;28;46809;-79
2022/07/28 05:58:29;;;;;;;;;4.00;3.75;;;;;20.19;40.62;100734.88;5005056;28;46365;-81
2022/07/28 06:00:57;;;;;;;;;2.75;2.25;;;;;20.12;40.70;100715.28;5004751;28;46139;-81
2022/07/28 06:03:23;;;;;;;;;3.00;3.00;;;;;20.19;40.85;100723.44;5011091;28;45613;-83
2022/07/28 06:05:49;;;;;;;;;4.00;4.00;;;;;20.21;40.82;100732.91;5010988;28;45931;-82
2022/07/28 06:08:14;;;;;;;;;4.00;3.00;;;;;20.25;40.95;100736.88;5009800;28;45923;-80
2022/07/28 06:11:00;;;;;;;;;3.00;3.00;;;;;20.23;40.61;100735.41;5010673;28;45606;-81
2022/07/28 06:13:26;;;;;;;;;4.00;4.00;;;;;20.11;40.96;100711.81;5015333;28;45772;-83
2022/07/28 06:15:51;;;;;;;;;4.00;3.00;;;;;20.24;40.83;100732.59;5013876;28;45780;-82
2022/07/28 06:18:21;;;;;;;;;5.50;4.25;;;;;20.25;41.07;100731.56;5010680;28;46131;-83
2022/07/28 06:20:47;;;;;;;;;4.25;3.50;;;;;20.33;40.83;100739.56;5008432;28;45741;-83
2022/07/28 06:23:22;;;;;;;;;4.00;3.50;;;;;20.34;41.04;100735.94;5001484;28;47320;-84
2022/07/28 06:25:54;;;;;;;;;3.25;2.50;;;;;20.37;40.55;100735.56;5001783;28;46605;-79
2022/07/28 06:28:19;;;;;;;;;5.50;3.50;;;;;20.37;40.77;100726.75;5014739;28;46095;-78
2022/07/28 06:30:46;;;;;;;;;5.25;4.00;;;;;20.42;40.86;100735.06;5013345;28;46082;-85
2022/07/28 06:33:13;;;;;;;;;3.75;3.25;;;;;20.46;40.78;100747.03;5013212;28;45746;-77
2022/07/28 06:35:38;;;;;;;;;6.00;4.25;;;;;20.41;40.74;100728.91;5012619;28;45715;-80
2022/07/28 06:38:04;;;;;;;;;4.50;3.50;;;;;20.48;40.74;100732.56;5014261;28;45902;-78
2022/07/28 06:40:30;;;;;;;;;3.50;3.25;;;;;20.47;40.64;100720.25;5013210;28;46089;-77
2022/07/28 06:46:18;;;;;;;;;3.25;2.75;;;;;20.67;40.87;100734.03;5147730;23;46584;-80
2022/07/28 06:48:44;;;;;;;;;5.25;4.00;;;;;20.71;40.13;100734.50;5008039;28;45860;-85
2022/07/28 06:51:11;;;;;;;;;4.00;4.00;;;;;20.68;40.33;100725.00;4985949;28;46052;-82
2022/07/28 06:56:22;;;;;;;;;6.00;4.00;;;;;20.76;40.33;100730.31;4955933;28;45756;-79
2022/07/28 06:58:48;;;;;;;;;5.00;3.75;;;;;20.78;40.70;100728.28;4955863;28;45708;-77
2022/07/28 07:01:20;;;;;;;;;4.00;4.00;;;;;20.88;40.61;100733.44;4957493;28;45687;-85
2022/07/28 07:03:46;;;;;;;;;3.00;3.00;;;;;20.95;40.29;100740.56;4957161;28;45912;-80
2022/07/28 07:06:15;;;;;;;;;3.50;3.50;;;;;20.97;40.17;100747.53;4956890;28;47257;-79
2022/07/28 07:08:41;;;;;;;;;5.00;5.00;;;;;20.98;40.28;100743.88;4956395;28;47986;-80
2022/07/28 07:11:06;;;;;;;;;4.00;4.00;;;;;20.92;40.29;100745.41;4957146;28;45654;-78
2022/07/28 07:13:32;;;;;;;;;4.75;4.00;;;;;20.99;40.30;100751.72;4939991;28;45978;-81
2022/07/28 07:15:57;;;;;;;;;4.25;4.00;;;;;21.00;40.41;100752.53;4957367;28;46571;-83
2022/07/28 07:18:23;;;;;;;;;5.00;5.00;;;;;21.01;40.30;100743.53;4954722;28;45796;-81
2022/07/28 07:23:15;;;;;;;;;7.00;4.00;;;;;21.04;40.35;100745.88;5021941;22;68074;-82
2022/07/28 07:25:41;;;;;;;;;6.75;6.00;;;;;20.99;40.53;100741.06;4998083;28;47658;-84
2022/07/28 07:28:06;;;;;;;;;4.50;4.00;;;;;21.01;40.01;100740.84;5000141;28;46474;-81
2022/07/28 07:30:32;;;;;;;;;5.50;4.25;;;;;21.06;40.13;100749.16;5016887;28;45943;-82
2022/07/28 07:33:06;;;;;;;;;4.50;4.00;;;;;21.08;40.34;100745.34;5015230;28;45614;-83
2022/07/28 07:35:33;;;;;;;;;7.00;5.00;;;;;21.13;40.21;100750.13;5015224;28;46516;-83
2022/07/28 07:38:01;;;;;;;;;5.75;5.00;;;;;21.13;40.53;100753.63;5017057;28;46384;-78
2022/07/28 07:40:26;;;;;;;;;6.00;5.25;;;;;21.17;40.06;100757.63;5015717;28;46153;-84
2022/07/28 07:42:52;;;;;;;;;5.50;4.75;;;;;21.10;40.03;100740.69;5014426;28;45590;-78
2022/07/28 07:45:17;;;;;;;;;6.00;4.25;;;;;21.22;40.03;100747.28;5014595;28;45576;-81
2022/07/28 07:47:43;;;;;;;;;5.00;4.00;;;;;21.26;39.85;100745.97;5020699;28;46060;-78
2022/07/28 07:50:08;;;;;;;;;5.00;5.00;;;;;21.24;40.05;100731.97;5022124;28;46159;-80
2022/07/28 07:52:37;;;;;;;;;7.25;5.75;;;;;21.27;39.96;100731.59;5014154;28;45994;-79
2022/07/28 07:55:03;;;;;;;;;6.50;4.50;;;;;21.38;39.84;100741.03;5013834;28;45728;-78
2022/07/28 07:57:28;;;;;;;;;6.00;5.25;;;;;21.42;39.90;100747.69;5013983;28;46067;-80
2022/07/28 07:59:54;;;;;;;;;6.50;5.25;;;;;21.47;39.72;100756.00;5013950;28;45595;-83
2022/07/28 08:02:19;;;;;;;;;5.50;5.25;;;;;21.51;39.48;100746.63;5012743;28;45602;-77
2022/07/28 08:04:45;;;;;;;;;5.00;5.00;;;;;21.63;39.31;100750.56;5013701;28;45571;-77
2022/07/28 08:07:10;;;;;;;;;7.00;5.25;;;;;21.66;39.12;100746.69;5013994;28;45773;-78
2022/07/28 08:09:37;;;;;;;;;6.50;5.00;;;;;21.74;39.44;100749.31;5014951;28;45718;-80
2022/07/28 08:12:03;;;;;;;;;6.25;5.75;;;;;21.75;39.18;100742.97;5015284;28;46059;-80
2022/07/28 08:14:28;;;;;;;;;6.50;6.00;;;;;21.82;39.15;100740.41;5017568;28;47680;-80
2022/07/28 08:16:58;;;;;;;;;6.00;6.00;;;;;21.83;39.01;100726.06;5014722;28;46097;-80
2022/07/28 08:19:23;;;;;;;;;6.00;5.25;;;;;21.96;38.80;100737.00;5013945;28;45893;-80
2022/07/28 08:21:50;;;;;;;;;5.25;4.25;;;;;21.96;39.05;100724.50;5014072;28;45616;-78
2022/07/28 08:24:16;;;;;;;;;5.75;5.25;;;;;22.05;38.79;100735.91;5014281;28;45763;-83
2022/07/28 08:26:41;;;;;;;;;6.00;5.75;;;;;22.10;38.38;100731.69;5013441;28;46692;-83
2022/07/28 08:29:08;;;;;;;;;4.75;4.75;;;;;22.20;38.65;100736.78;5013689;28;46006;-83
2022/07/28 08:31:38;;;;;;;;;5.75;5.00;;;;;22.23;38.57;100731.09;5013810;28;45797;-80
2022/07/28 08:34:03;;;;;;;;;5.75;5.75;;;;;22.21;38.81;100724.25;5013793;28;46065;-80
2022/07/28 08:36:40;;;;;;;;;7.50;5.25;;;;;22.33;38.48;100738.84;5014269;28;46025;-78
2022/07/28 08:39:06;;;;;;;;;5.00;5.00;;;;;22.31;38.16;100731.00;5013821;28;46156;-82
2022/07/28 08:41:42;;;;;;;;;5.75;5.25;;;;;22.42;38.24;100729.72;5014406;28;45958;-79
2022/07/28 08:44:14;;;;;;;;;7.00;5.00;;;;;22.45;38.77;100730.19;5013815;28;45800;-81
2022/07/28 08:46:42;;;;;;;;;6.75;6.00;;;;;22.55;37.97;100730.75;5013594;28;46168;-83
2022/07/28 08:49:08;;;;;;;;;8.00;6.75;;;;;22.63;37.71;100737.00;5013560;28;45704;-77
2022/07/28 08:51:35;;;;;;;;;6.25;5.25;;;;;22.67;37.59;100733.81;5013833;28;45776;-79
2022/07/28 08:54:04;;;;;;;;;6.50;4.75;;;;;22.67;37.61;100723.13;5014083;28;45555;-82
2022/07/28 08:56:39;;;;;;;;;6.50;6.00;;;;;22.70;37.27;100720.06;5013772;28;45518;-81
2022/07/28 08:59:30;;;;;;;;;6.25;5.25;;;;;22.80;37.34;100734.00;5013648;28;45809;-80
2022/07/28 09:01:55;;;;;;;;;5.25;5.25;;;;;22.81;37.37;100729.50;4995015;28;45805;-79
2022/07/28 09:04:22;;;;;;;;;6.00;6.00;;;;;22.85;37.73;100731.59;4995634;28;45655;-86
2022/07/28 09:06:48;;;;;;;;;6.00;5.50;;;;;22.85;37.44;100728.94;5013579;28;45986;-81
2022/07/28 09:09:14;;;;;;;;;7.25;6.00;;;;;22.92;37.23;100721.84;5014393;28;45730;-80
2022/07/28 09:11:39;;;;;;;;;4.25;4.25;;;;;22.87;37.08;100708.22;5014581;28;46070;-87
2022/07/28 09:14:05;;;;;;;;;6.00;5.00;;;;;22.96;36.95;100722.28;5014321;28;45574;-79
2022/07/28 09:16:31;;;;;;;;;6.00;5.00;;;;;22.98;36.84;100715.75;5014392;28;46102;-89
2022/07/28 09:18:57;;;;;;;;;5.25;5.25;;;;;23.04;36.70;100727.53;5015054;28;45757;-89
2022/07/28 09:21:22;;;;;;;;;5.25;5.00;;;;;23.05;36.51;100723.81;5014834;28;45795;-90
2022/07/28 09:23:48;;;;;;;;;5.00;4.50;;;;;23.07;36.49;100727.16;5015533;28;45706;-90
2022/07/28 09:26:15;;;;;;;;;5.25;5.00;;;;;23.07;36.48;100716.47;5015016;28;45776;-85
2022/07/28 09:28:53;;;;;;;;;6.50;5.75;;;;;23.19;36.01;100728.34;5015079;28;45890;-81
2022/07/28 09:31:25;;;;;;;;;5.00;4.00;;;;;23.22;36.38;100717.25;4996481;28;45619;-82
2022/07/28 09:34:06;;;;;;;;;5.00;3.00;;;;;23.17;36.52;100711.63;5013716;28;46967;-79
2022/07/28 09:36:39;;;;;;;;;6.00;5.00;;;;;23.28;36.17;100716.50;5013819;28;46421;-84
2022/07/28 09:39:05;;;;;;;;;6.75;4.00;;;;;23.37;36.23;100725.25;5014555;28;45851;-79
2022/07/28 09:41:48;;;;;;;;;4.00;4.00;;;;;23.44;35.97;100718.94;5013836;28;45768;-79
2022/07/28 09:44:21;;;;;;;;;4.00;4.00;;;;;23.40;35.96;100709.66;4995802;28;47115;-78
2022/07/28 09:46:46;;;;;;;;;4.00;4.00;;;;;23.51;35.62;100708.34;5014711;28;46183;-82
2022/07/28 09:49:12;;;;;;;;;5.00;5.00;;;;;23.58;36.23;100698.53;5023906;28;45709;-80
2022/07/28 09:51:37;;;;;;;;;4.50;3.75;;;;;23.61;35.27;100697.31;5023508;28;45781;-80
2022/07/28 09:54:11;;;;;;;;;5.00;4.50;;;;;23.73;35.01;100701.16;5012596;28;45548;-79
2022/07/28 09:59:59;;;;;;;;;5.00;4.75;;;;;23.85;35.00;100691.59;5006915;28;45539;-81
2022/07/28 10:02:30;;;;;;;;;1.00;1.00;;;;;23.92;34.85;100696.97;5015037;28;45742;-83
2022/07/28 10:04:59;;;;;;;;;4.50;4.00;;;;;23.97;34.68;100692.69;5014051;28;45646;-78
2022/07/28 10:07:25;;;;;;;;;3.00;2.00;;;;;24.10;33.94;100708.03;5013505;28;45918;-82
2022/07/28 10:09:57;;;;;;;;;4.00;3.75;;;;;24.21;34.01;100710.22;5013046;28;46145;-84
2022/07/28 10:12:25;;;;;;;;;5.00;4.00;;;;;24.17;34.48;100691.03;4999921;28;46075;-81
2022/07/28 10:14:54;;;;;;;;;5.25;3.00;;;;;24.32;33.57;100707.00;5012339;28;45791;-83
2022/07/28 10:17:33;;;;;;;;;4.75;4.75;;;;;24.42;33.98;100703.97;4993743;28;46749;-79
2022/07/28 10:20:18;;;;;;;;;3.00;3.00;;;;;24.48;33.47;100695.13;5011514;28;45781;-77
2022/07/28 10:22:44;;;;;;;;;4.25;4.00;;;;;24.53;33.45;100703.41;5011139;28;45696;-78
2022/07/28 10:25:13;;;;;;;;;4.25;4.00;;;;;24.61;33.09;100700.59;5010624;28;46181;-77
2022/07/28 10:27:40;;;;;;;;;4.00;2.75;;;;;24.62;33.00;100684.28;5011842;28;46197;-79
2022/07/28 10:30:07;;;;;;;;;3.75;2.50;;;;;24.66;32.84;100680.22;5011477;28;45571;-83
2022/07/28 10:32:41;;;;;;;;;3.00;3.00;;;;;24.76;32.40;100687.88;5011261;28;46007;-85
2022/07/28 10:35:10;;;;;;;;;4.00;4.00;;;;;24.81;32.40;100685.44;5011046;28;45874;-81
2022/07/28 10:38:03;;;;;;;;;4.75;4.00;;;;;24.81;32.24;100685.44;5012522;28;46235;-77
2022/07/28 10:40:34;;;;;;;;;4.00;3.00;;;;;24.91;32.53;100687.75;5002501;28;45880;-79
2022/07/28 10:42:59;;;;;;;;;1.75;1.75;;;;;24.92;31.74;100695.59;5008797;28;45820;-81
2022/07/28 10:45:26;;;;;;;;;1.25;1.25;;;;;24.97;31.95;100697.69;5011815;28;45879;-77
2022/07/28 10:47:53;;;;;;;;;3.00;3.00;;;;;24.93;31.46;100686.53;5016747;28;46034;-77
2022/07/28 11:05:38;;;;;;;;;6.00;5.00;;;;;25.48;31.89;100679.22;5357166;23;46042;-77
2022/07/28 11:12:16;;;;;;;;;3.00;2.75;;;;;25.49;31.22;100662.13;5003355;28;45812;-80
2022/07/28 11:14:42;;;;;;;;;2.75;2.75;;;;;25.70;30.79;100685.28;5004470;28;45905;-80
2022/07/28 11:17:09;;;;;;;;;2.00;2.00;;;;;25.73;30.85;100687.56;5012612;28;45907;-78
2022/07/28 11:19:44;;;;;;;;;3.00;3.00;;;;;25.75;30.56;100697.06;5012484;28;46536;-79
2022/07/28 11:22:20;;;;;;;;;2.00;2.00;;;;;25.76;30.58;100692.50;5011806;28;45964;-81
2022/07/28 11:25:00;;;;;;;;;3.00;3.00;;;;;25.78;30.76;100685.09;5011662;28;45614;-79
2022/07/28 11:27:51;;;;;;;;;4.00;3.00;;;;;25.79;30.89;100682.22;5013067;28;45610;-82
2022/07/28 11:30:35;;;;;;;;;1.50;1.00;;;;;25.83;30.79;100677.25;4999273;28;45616;-81
2022/07/28 11:33:02;;;;;;;;;2.75;2.00;;;;;25.82;31.41;100664.84;5011387;28;46171;-80
2022/07/28 11:35:52;;;;;;;;;1.75;1.00;;;;;25.93;29.99;100674.97;5011830;28;46294;-81
2022/07/28 11:41:28;;;;;;;;;3.00;3.00;;;;;25.90;30.02;100659.28;5014617;28;45954;-80
2022/07/28 11:43:54;;;;;;;;;3.50;3.00;;;;;25.94;30.03;100651.63;4973463;28;47861;-84
2022/07/28 11:46:22;;;;;;;;;2.00;2.00;;;;;26.02;30.17;100654.09;4981961;28;45796;-82
2022/07/28 11:49:15;;;;;;;;;3.00;2.75;;;;;26.20;30.11;100670.38;4980486;28;45893;-82
2022/07/28 11:57:40;;;;;;;;;2.25;2.00;;;;;26.33;29.44;100651.59;4933800;28;45727;-77
2022/07/28 12:00:06;;;;;;;;;5.00;3.00;;;;;26.39;29.51;100647.25;4918608;28;45707;-80
2022/07/28 12:02:39;;;;;;;;;3.00;3.00;;;;;26.48;29.80;100651.34;4919317;28;47507;-82
2022/07/28 12:05:08;;;;;;;;;3.00;3.00;;;;;26.62;29.43;100661.00;4934808;28;46082;-80
2022/07/28 12:07:36;;;;;;;;;4.00;3.25;;;;;26.68;29.41;100668.22;4938014;28;45850;-81
2022/07/28 12:10:28;;;;;;;;;3.25;3.00;;;;;26.69;29.28;100651.06;4936054;28;45579;-88
2022/07/28 12:13:04;;;;;;;;;4.50;4.00;;;;;26.73;29.27;100663.84;4921112;28;48278;-78
2022/07/28 12:16:27;;;;;;;;;3.50;3.00;;;;;26.59;29.30;100638.06;4935699;28;46602;-79
2022/07/28 12:18:53;;;;;;;;;3.75;3.00;;;;;26.68;29.34;100654.78;4934545;28;45821;-86
2022/07/28 12:21:47;;;;;;;;;3.00;3.00;;;;;26.78;29.10;100655.16;4935401;28;45929;-85
2022/07/28 12:24:28;;;;;;;;;4.75;4.00;;;;;26.84;29.38;100656.97;4933794;28;45759;-81
2022/07/28 12:26:54;;;;;;;;;5.00;4.00;;;;;26.90;29.08;100655.34;4933895;28;46544;-84
2022/07/28 12:29:20;;;;;;;;;3.50;3.25;;;;;26.96;29.67;100638.34;4940713;28;45777;-83
2022/07/28 12:31:51;;;;;;;;;4.00;4.00;;;;;27.14;29.31;100655.44;4918731;28;45821;-80
2022/07/28 12:34:17;;;;;;;;;5.00;3.75;;;;;27.19;28.93;100657.47;4979815;28;47491;-79
2022/07/28 12:36:43;;;;;;;;;4.00;4.00;;;;;27.19;28.84;100651.25;5019031;28;45789;-81
2022/07/28 12:39:09;;;;;;;;;4.00;4.00;;;;;27.20;28.79;100658.28;5018360;28;45975;-80
2022/07/28 12:41:37;;;;;;;;;4.25;3.75;;;;;27.20;28.90;100652.91;5018521;28;45691;-84
2022/07/28 12:44:04;;;;;;;;;5.00;4.00;;;;;27.12;28.46;100637.84;5000472;28;47362;-81
2022/07/28 12:46:30;;;;;;;;;4.00;4.00;;;;;27.09;29.11;100633.72;5000357;28;47305;-82
2022/07/28 12:48:58;;;;;;;;;3.25;3.25;;;;;27.24;29.22;100649.56;5026986;28;45752;-81
2022/07/28 12:51:39;;;;;;;;;5.75;5.00;;;;;27.27;28.35;100646.44;5015551;28;45686;-82
2022/07/28 12:54:09;;;;;;;;;3.25;3.00;;;;;27.34;28.46;100652.59;5014809;28;45688;-85
2022/07/28 12:56:49;;;;;;;;;4.00;4.00;;;;;27.29;28.17;100640.84;5016913;28;45575;-80